sensor_id;sensor_type;location;lat;lon;timestamp;temperature;humidity
50738;DHT22;36703;48.154;17.126;2023-02-19T00:00:29;16.20;50.20
50738;DHT22;36703;48.154;17.126;2023-02-19T00:04:31;16.20;50.30
50738;DHT22;36703;48.154;17.126;2023-02-19T00:08:33;16.30;50.30
50738;DHT22;36703;48.154;17.126;2023-02-19T00:12:35;16.30;50.30
50738;DHT22;36703;48.154;17.126;2023-02-19T00:16:38;16.30;50.40
50738;DHT22;36703;48.154;17.126;2023-02-19T00:20:40;16.20;50.50
50738;DHT22;36703;48.154;17.126;2023-02-19T00:24:41;16.20;50.60
50738;DHT22;36703;48.154;17.126;2023-02-19T00:28:43;16.30;50.60
50738;DHT22;36703;48.154;17.126;2023-02-19T00:32:49;16.30;50.60
50738;DHT22;36703;48.154;17.126;2023-02-19T00:36:51;16.30;50.60
50738;DHT22;36703;48.154;17.126;2023-02-19T00:40:53;16.30;50.60
50738;DHT22;36703;48.154;17.126;2023-02-19T00:44:55;16.30;50.60
50738;DHT22;36703;48.154;17.126;2023-02-19T00:48:57;16.30;50.60
50738;DHT22;36703;48.154;17.126;2023-02-19T00:52:59;16.30;51.00
50738;DHT22;36703;48.154;17.126;2023-02-19T00:57:01;16.30;50.40
50738;DHT22;36703;48.154;17.126;2023-02-19T01:01:03;16.30;50.30
50738;DHT22;36703;48.154;17.126;2023-02-19T01:05:06;16.30;50.20
50738;DHT22;36703;48.154;17.126;2023-02-19T01:09:08;16.30;50.10
50738;DHT22;36703;48.154;17.126;2023-02-19T01:13:10;16.30;50.00
50738;DHT22;36703;48.154;17.126;2023-02-19T01:17:11;16.30;49.90
50738;DHT22;36703;48.154;17.126;2023-02-19T01:21:16;16.30;49.80
50738;DHT22;36703;48.154;17.126;2023-02-19T01:25:20;16.30;49.60
50738;DHT22;36703;48.154;17.126;2023-02-19T01:29:22;16.20;49.50
50738;DHT22;36703;48.154;17.126;2023-02-19T01:33:23;16.20;49.50
50738;DHT22;36703;48.154;17.126;2023-02-19T01:37:25;16.20;49.30
50738;DHT22;36703;48.154;17.126;2023-02-19T01:41:27;16.20;49.30
50738;DHT22;36703;48.154;17.126;2023-02-19T01:45:35;16.30;49.20
50738;DHT22;36703;48.154;17.126;2023-02-19T01:49:52;16.30;49.20
50738;DHT22;36703;48.154;17.126;2023-02-19T01:53:58;16.30;49.10
50738;DHT22;36703;48.154;17.126;2023-02-19T01:58:02;16.30;49.10
50738;DHT22;36703;48.154;17.126;2023-02-19T02:02:04;16.20;49.10
50738;DHT22;36703;48.154;17.126;2023-02-19T02:06:13;16.20;49.10
50738;DHT22;36703;48.154;17.126;2023-02-19T02:10:25;16.30;49.20
50738;DHT22;36703;48.154;17.126;2023-02-19T02:14:30;16.20;49.10
50738;DHT22;36703;48.154;17.126;2023-02-19T02:18:37;16.10;49.10
50738;DHT22;36703;48.154;17.126;2023-02-19T02:23:21;16.20;49.30
50738;DHT22;36703;48.154;17.126;2023-02-19T02:27:48;16.20;49.30
50738;DHT22;36703;48.154;17.126;2023-02-19T02:32:23;16.10;49.40
50738;DHT22;36703;48.154;17.126;2023-02-19T02:36:38;16.10;49.40
50738;DHT22;36703;48.154;17.126;2023-02-19T02:40:44;16.10;49.50
50738;DHT22;36703;48.154;17.126;2023-02-19T02:44:47;16.00;49.50
50738;DHT22;36703;48.154;17.126;2023-02-19T02:49:19;16.00;49.50
50738;DHT22;36703;48.154;17.126;2023-02-19T02:53:31;16.00;49.60
50738;DHT22;36703;48.154;17.126;2023-02-19T02:57:53;15.90;49.70
50738;DHT22;36703;48.154;17.126;2023-02-19T03:06:16;16.00;49.80
50738;DHT22;36703;48.154;17.126;2023-02-19T03:10:25;16.00;49.90
50738;DHT22;36703;48.154;17.126;2023-02-19T03:14:40;16.00;50.00
50738;DHT22;36703;48.154;17.126;2023-02-19T03:19:07;16.00;50.00
50738;DHT22;36703;48.154;17.126;2023-02-19T03:23:21;16.00;50.10
50738;DHT22;36703;48.154;17.126;2023-02-19T03:27:44;16.00;50.10
50738;DHT22;36703;48.154;17.126;2023-02-19T03:31:55;15.90;50.10
50738;DHT22;36703;48.154;17.126;2023-02-19T03:36:05;15.90;50.20
50738;DHT22;36703;48.154;17.126;2023-02-19T03:40:09;15.90;50.30
50738;DHT22;36703;48.154;17.126;2023-02-19T03:44:24;15.90;50.40
50738;DHT22;36703;48.154;17.126;2023-02-19T03:48:34;15.90;50.50
50738;DHT22;36703;48.154;17.126;2023-02-19T04:01:30;15.80;51.20
50738;DHT22;36703;48.154;17.126;2023-02-19T04:05:38;15.70;51.40
50738;DHT22;36703;48.154;17.126;2023-02-19T04:09:47;15.60;51.60
50738;DHT22;36703;48.154;17.126;2023-02-19T04:14:00;15.60;51.90
50738;DHT22;36703;48.154;17.126;2023-02-19T04:18:09;15.50;52.20
50738;DHT22;36703;48.154;17.126;2023-02-19T04:22:14;15.50;52.50
50738;DHT22;36703;48.154;17.126;2023-02-19T04:26:19;15.50;52.70
50738;DHT22;36703;48.154;17.126;2023-02-19T04:30:22;15.50;52.80
50738;DHT22;36703;48.154;17.126;2023-02-19T04:34:24;15.50;52.90
50738;DHT22;36703;48.154;17.126;2023-02-19T04:38:25;15.40;52.90
50738;DHT22;36703;48.154;17.126;2023-02-19T04:42:27;15.40;53.10
50738;DHT22;36703;48.154;17.126;2023-02-19T04:46:28;15.40;53.30
50738;DHT22;36703;48.154;17.126;2023-02-19T04:50:30;15.40;53.60
50738;DHT22;36703;48.154;17.126;2023-02-19T04:54:32;15.40;53.70
50738;DHT22;36703;48.154;17.126;2023-02-19T04:58:33;15.30;53.70
50738;DHT22;36703;48.154;17.126;2023-02-19T05:02:35;15.30;54.10
50738;DHT22;36703;48.154;17.126;2023-02-19T05:06:37;15.20;54.30
50738;DHT22;36703;48.154;17.126;2023-02-19T05:10:38;15.20;54.60
50738;DHT22;36703;48.154;17.126;2023-02-19T05:14:40;15.20;54.80
50738;DHT22;36703;48.154;17.126;2023-02-19T05:18:44;15.20;54.90
50738;DHT22;36703;48.154;17.126;2023-02-19T05:22:46;15.20;54.90
50738;DHT22;36703;48.154;17.126;2023-02-19T05:26:47;15.20;54.70
50738;DHT22;36703;48.154;17.126;2023-02-19T05:30:50;15.20;54.70
50738;DHT22;36703;48.154;17.126;2023-02-19T05:34:52;15.30;54.70
50738;DHT22;36703;48.154;17.126;2023-02-19T05:38:55;15.20;54.70
50738;DHT22;36703;48.154;17.126;2023-02-19T05:42:57;15.20;54.80
50738;DHT22;36703;48.154;17.126;2023-02-19T05:46:58;15.10;54.80
50738;DHT22;36703;48.154;17.126;2023-02-19T05:51:05;15.20;54.80
50738;DHT22;36703;48.154;17.126;2023-02-19T05:55:07;15.20;54.90
50738;DHT22;36703;48.154;17.126;2023-02-19T05:59:18;15.10;55.30
50738;DHT22;36703;48.154;17.126;2023-02-19T06:03:21;15.00;55.60
50738;DHT22;36703;48.154;17.126;2023-02-19T06:07:23;15.00;55.90
50738;DHT22;36703;48.154;17.126;2023-02-19T06:11:24;15.00;56.30
50738;DHT22;36703;48.154;17.126;2023-02-19T06:15:26;15.00;56.50
50738;DHT22;36703;48.154;17.126;2023-02-19T06:19:27;14.90;56.80
50738;DHT22;36703;48.154;17.126;2023-02-19T06:23:29;14.80;57.40
50738;DHT22;36703;48.154;17.126;2023-02-19T06:27:31;14.70;57.80
50738;DHT22;36703;48.154;17.126;2023-02-19T06:31:33;14.80;58.10
50738;DHT22;36703;48.154;17.126;2023-02-19T06:35:35;14.80;58.30
50738;DHT22;36703;48.154;17.126;2023-02-19T06:39:37;14.70;58.40
50738;DHT22;36703;48.154;17.126;2023-02-19T06:43:38;14.70;58.70
50738;DHT22;36703;48.154;17.126;2023-02-19T06:47:40;14.70;58.90
50738;DHT22;36703;48.154;17.126;2023-02-19T06:51:42;14.60;59.30
50738;DHT22;36703;48.154;17.126;2023-02-19T06:55:58;14.50;60.00
50738;DHT22;36703;48.154;17.126;2023-02-19T07:00:01;14.50;59.90
50738;DHT22;36703;48.154;17.126;2023-02-19T07:04:05;14.50;60.00
50738;DHT22;36703;48.154;17.126;2023-02-19T07:08:07;14.40;60.30
50738;DHT22;36703;48.154;17.126;2023-02-19T07:12:09;14.50;60.50
50738;DHT22;36703;48.154;17.126;2023-02-19T07:16:11;14.50;60.50
50738;DHT22;36703;48.154;17.126;2023-02-19T07:20:13;14.40;60.60
50738;DHT22;36703;48.154;17.126;2023-02-19T07:24:14;14.40;61.50
50738;DHT22;36703;48.154;17.126;2023-02-19T07:28:16;14.30;60.90
50738;DHT22;36703;48.154;17.126;2023-02-19T07:32:18;14.40;61.00
50738;DHT22;36703;48.154;17.126;2023-02-19T07:36:22;14.40;61.10
50738;DHT22;36703;48.154;17.126;2023-02-19T07:40:23;14.50;61.10
50738;DHT22;36703;48.154;17.126;2023-02-19T07:44:25;14.50;60.90
50738;DHT22;36703;48.154;17.126;2023-02-19T07:48:26;14.50;60.60
50738;DHT22;36703;48.154;17.126;2023-02-19T07:52:28;14.60;60.40
50738;DHT22;36703;48.154;17.126;2023-02-19T07:56:29;14.60;60.10
50738;DHT22;36703;48.154;17.126;2023-02-19T08:00:31;14.70;60.00
50738;DHT22;36703;48.154;17.126;2023-02-19T08:04:34;14.80;59.40
50738;DHT22;36703;48.154;17.126;2023-02-19T08:08:36;14.80;58.70
50738;DHT22;36703;48.154;17.126;2023-02-19T08:12:39;14.90;58.50
50738;DHT22;36703;48.154;17.126;2023-02-19T08:16:59;15.00;58.20
50738;DHT22;36703;48.154;17.126;2023-02-19T08:21:00;15.10;58.00
50738;DHT22;36703;48.154;17.126;2023-02-19T08:25:02;15.20;57.70
50738;DHT22;36703;48.154;17.126;2023-02-19T08:29:04;15.30;57.40
50738;DHT22;36703;48.154;17.126;2023-02-19T08:33:07;15.20;57.20
50738;DHT22;36703;48.154;17.126;2023-02-19T08:37:08;15.30;57.00
50738;DHT22;36703;48.154;17.126;2023-02-19T08:41:11;15.40;56.60
50738;DHT22;36703;48.154;17.126;2023-02-19T08:45:14;15.40;56.30
50738;DHT22;36703;48.154;17.126;2023-02-19T08:49:15;15.50;56.10
50738;DHT22;36703;48.154;17.126;2023-02-19T08:53:17;15.50;55.90
50738;DHT22;36703;48.154;17.126;2023-02-19T08:57:18;15.50;55.60
50738;DHT22;36703;48.154;17.126;2023-02-19T09:01:20;15.50;55.50
50738;DHT22;36703;48.154;17.126;2023-02-19T09:05:22;15.60;55.60
50738;DHT22;36703;48.154;17.126;2023-02-19T09:09:23;15.60;55.90
50738;DHT22;36703;48.154;17.126;2023-02-19T09:13:25;15.70;55.60
50738;DHT22;36703;48.154;17.126;2023-02-19T09:17:27;15.90;55.60
50738;DHT22;36703;48.154;17.126;2023-02-19T09:21:28;16.20;55.30
50738;DHT22;36703;48.154;17.126;2023-02-19T09:25:30;16.10;54.80
50738;DHT22;36703;48.154;17.126;2023-02-19T09:29:31;16.20;54.50
50738;DHT22;36703;48.154;17.126;2023-02-19T09:33:34;16.20;54.30
50738;DHT22;36703;48.154;17.126;2023-02-19T09:37:36;16.50;54.00
50738;DHT22;36703;48.154;17.126;2023-02-19T09:41:42;16.70;53.40
50738;DHT22;36703;48.154;17.126;2023-02-19T09:45:47;17.00;53.00
50738;DHT22;36703;48.154;17.126;2023-02-19T09:50:05;17.20;52.30
50738;DHT22;36703;48.154;17.126;2023-02-19T09:54:16;17.50;51.80
50738;DHT22;36703;48.154;17.126;2023-02-19T09:58:34;17.80;51.20
50738;DHT22;36703;48.154;17.126;2023-02-19T10:02:37;18.10;50.40
50738;DHT22;36703;48.154;17.126;2023-02-19T10:06:39;18.30;49.70
50738;DHT22;36703;48.154;17.126;2023-02-19T10:10:40;18.50;49.40
50738;DHT22;36703;48.154;17.126;2023-02-19T10:14:46;18.80;48.70
50738;DHT22;36703;48.154;17.126;2023-02-19T10:18:49;19.00;48.00
50738;DHT22;36703;48.154;17.126;2023-02-19T10:23:03;19.30;47.50
50738;DHT22;36703;48.154;17.126;2023-02-19T10:27:14;19.60;46.50
50738;DHT22;36703;48.154;17.126;2023-02-19T10:31:22;19.70;45.80
50738;DHT22;36703;48.154;17.126;2023-02-19T10:35:26;19.50;45.90
50738;DHT22;36703;48.154;17.126;2023-02-19T10:39:48;19.70;46.00
50738;DHT22;36703;48.154;17.126;2023-02-19T11:00:29;20.50;45.40
50738;DHT22;36703;48.154;17.126;2023-02-19T11:04:33;21.70;42.00
50738;DHT22;36703;48.154;17.126;2023-02-19T11:37:59;22.10;40.90
50738;DHT22;36703;48.154;17.126;2023-02-19T12:18:28;20.30;37.50
50738;DHT22;36703;48.154;17.126;2023-02-19T12:22:36;20.10;37.70
50738;DHT22;36703;48.154;17.126;2023-02-19T12:36:42;19.60;39.30
50738;DHT22;36703;48.154;17.126;2023-02-19T12:41:05;19.40;39.90
50738;DHT22;36703;48.154;17.126;2023-02-19T12:45:22;19.20;40.30
50738;DHT22;36703;48.154;17.126;2023-02-19T12:49:37;19.10;40.60
50738;DHT22;36703;48.154;17.126;2023-02-19T12:53:55;19.00;40.90
50738;DHT22;36703;48.154;17.126;2023-02-19T12:58:04;19.10;41.00
50738;DHT22;36703;48.154;17.126;2023-02-19T13:07:00;19.10;41.20
50738;DHT22;36703;48.154;17.126;2023-02-19T13:11:09;18.90;42.00
50738;DHT22;36703;48.154;17.126;2023-02-19T13:19:45;18.70;43.20
50738;DHT22;36703;48.154;17.126;2023-02-19T13:23:49;18.50;44.10
50738;DHT22;36703;48.154;17.126;2023-02-19T13:28:07;18.30;44.80
50738;DHT22;36703;48.154;17.126;2023-02-19T13:36:46;18.80;45.30
50738;DHT22;36703;48.154;17.126;2023-02-19T13:40:56;19.50;44.60
50738;DHT22;36703;48.154;17.126;2023-02-19T13:45:01;19.80;44.00
50738;DHT22;36703;48.154;17.126;2023-02-19T13:57:44;19.20;44.20
50738;DHT22;36703;48.154;17.126;2023-02-19T14:06:01;19.00;44.60
50738;DHT22;36703;48.154;17.126;2023-02-19T14:15:37;18.30;45.00
50738;DHT22;36703;48.154;17.126;2023-02-19T14:23:59;17.70;46.10
50738;DHT22;36703;48.154;17.126;2023-02-19T14:28:24;17.50;46.60
50738;DHT22;36703;48.154;17.126;2023-02-19T14:32:31;17.40;47.00
50738;DHT22;36703;48.154;17.126;2023-02-19T14:36:40;17.30;47.40
50738;DHT22;36703;48.154;17.126;2023-02-19T14:40:53;17.20;47.70
50738;DHT22;36703;48.154;17.126;2023-02-19T14:44:58;17.10;48.00
50738;DHT22;36703;48.154;17.126;2023-02-19T14:49:18;17.00;48.30
50738;DHT22;36703;48.154;17.126;2023-02-19T14:53:25;16.80;48.70
50738;DHT22;36703;48.154;17.126;2023-02-19T14:57:31;16.70;49.00
50738;DHT22;36703;48.154;17.126;2023-02-19T15:01:36;16.70;49.30
50738;DHT22;36703;48.154;17.126;2023-02-19T15:05:38;16.60;49.40
50738;DHT22;36703;48.154;17.126;2023-02-19T15:09:43;16.60;49.60
50738;DHT22;36703;48.154;17.126;2023-02-19T15:13:56;16.50;49.70
50738;DHT22;36703;48.154;17.126;2023-02-19T15:18:00;16.50;49.90
50738;DHT22;36703;48.154;17.126;2023-02-19T15:22:02;16.40;50.00
50738;DHT22;36703;48.154;17.126;2023-02-19T15:26:04;16.40;50.20
50738;DHT22;36703;48.154;17.126;2023-02-19T15:30:27;16.30;50.30
50738;DHT22;36703;48.154;17.126;2023-02-19T15:34:30;16.40;50.40
50738;DHT22;36703;48.154;17.126;2023-02-19T15:38:32;16.30;50.30
50738;DHT22;36703;48.154;17.126;2023-02-19T15:42:35;16.30;50.10
50738;DHT22;36703;48.154;17.126;2023-02-19T15:46:40;16.20;49.90
50738;DHT22;36703;48.154;17.126;2023-02-19T15:50:47;16.20;49.80
50738;DHT22;36703;48.154;17.126;2023-02-19T15:59:24;15.70;48.80
50738;DHT22;36703;48.154;17.126;2023-02-19T16:03:30;15.40;49.50
50738;DHT22;36703;48.154;17.126;2023-02-19T16:07:32;15.20;49.60
50738;DHT22;36703;48.154;17.126;2023-02-19T16:11:39;15.00;50.00
50738;DHT22;36703;48.154;17.126;2023-02-19T16:16:14;14.90;50.50
50738;DHT22;36703;48.154;17.126;2023-02-19T16:20:20;14.90;51.50
50738;DHT22;36703;48.154;17.126;2023-02-19T16:24:40;14.80;51.40
50738;DHT22;36703;48.154;17.126;2023-02-19T16:28:49;14.70;51.90
50738;DHT22;36703;48.154;17.126;2023-02-19T16:37:39;14.50;52.40
50738;DHT22;36703;48.154;17.126;2023-02-19T16:46:00;14.60;52.50
50738;DHT22;36703;48.154;17.126;2023-02-19T16:50:09;14.50;52.50
50738;DHT22;36703;48.154;17.126;2023-02-19T16:54:13;14.50;52.70
50738;DHT22;36703;48.154;17.126;2023-02-19T16:58:15;14.30;52.80
50738;DHT22;36703;48.154;17.126;2023-02-19T17:02:20;14.40;53.10
50738;DHT22;36703;48.154;17.126;2023-02-19T17:06:22;14.20;53.20
50738;DHT22;36703;48.154;17.126;2023-02-19T17:10:26;14.20;53.40
50738;DHT22;36703;48.154;17.126;2023-02-19T17:14:27;14.10;53.40
50738;DHT22;36703;48.154;17.126;2023-02-19T17:18:29;14.10;53.50
50738;DHT22;36703;48.154;17.126;2023-02-19T17:22:31;14.00;53.50
50738;DHT22;36703;48.154;17.126;2023-02-19T17:26:32;13.90;53.50
50738;DHT22;36703;48.154;17.126;2023-02-19T17:30:34;13.90;53.60
50738;DHT22;36703;48.154;17.126;2023-02-19T17:34:36;13.80;53.60
50738;DHT22;36703;48.154;17.126;2023-02-19T17:38:37;13.80;53.60
50738;DHT22;36703;48.154;17.126;2023-02-19T17:42:39;13.70;53.70
50738;DHT22;36703;48.154;17.126;2023-02-19T17:46:40;13.70;53.70
50738;DHT22;36703;48.154;17.126;2023-02-19T17:50:42;13.70;54.30
50738;DHT22;36703;48.154;17.126;2023-02-19T17:54:45;13.40;53.50
50738;DHT22;36703;48.154;17.126;2023-02-19T17:58:47;13.60;53.60
50738;DHT22;36703;48.154;17.126;2023-02-19T18:02:48;13.50;53.60
50738;DHT22;36703;48.154;17.126;2023-02-19T18:06:50;13.50;53.70
50738;DHT22;36703;48.154;17.126;2023-02-19T18:10:54;13.60;53.90
50738;DHT22;36703;48.154;17.126;2023-02-19T18:14:55;13.80;54.00
50738;DHT22;36703;48.154;17.126;2023-02-19T18:18:57;13.30;53.80
50738;DHT22;36703;48.154;17.126;2023-02-19T18:23:01;13.30;53.70
50738;DHT22;36703;48.154;17.126;2023-02-19T18:27:03;13.30;53.60
50738;DHT22;36703;48.154;17.126;2023-02-19T18:31:05;13.20;53.50
50738;DHT22;36703;48.154;17.126;2023-02-19T18:35:07;13.20;53.30
50738;DHT22;36703;48.154;17.126;2023-02-19T18:39:08;13.10;53.10
50738;DHT22;36703;48.154;17.126;2023-02-19T18:43:10;13.00;53.00
50738;DHT22;36703;48.154;17.126;2023-02-19T18:47:12;13.20;52.90
50738;DHT22;36703;48.154;17.126;2023-02-19T18:51:14;13.10;52.60
50738;DHT22;36703;48.154;17.126;2023-02-19T18:55:15;13.10;52.40
50738;DHT22;36703;48.154;17.126;2023-02-19T18:59:17;13.00;52.20
50738;DHT22;36703;48.154;17.126;2023-02-19T19:03:18;12.90;52.10
50738;DHT22;36703;48.154;17.126;2023-02-19T19:07:20;12.90;51.80
50738;DHT22;36703;48.154;17.126;2023-02-19T19:11:22;12.80;51.50
50738;DHT22;36703;48.154;17.126;2023-02-19T19:15:25;12.70;51.00
50738;DHT22;36703;48.154;17.126;2023-02-19T19:19:26;12.60;50.20
50738;DHT22;36703;48.154;17.126;2023-02-19T19:23:28;12.50;49.40
50738;DHT22;36703;48.154;17.126;2023-02-19T19:27:29;12.30;48.80
50738;DHT22;36703;48.154;17.126;2023-02-19T19:31:35;12.30;48.30
50738;DHT22;36703;48.154;17.126;2023-02-19T19:35:37;12.30;48.10
50738;DHT22;36703;48.154;17.126;2023-02-19T19:39:38;12.30;47.80
50738;DHT22;36703;48.154;17.126;2023-02-19T19:43:40;12.20;47.50
50738;DHT22;36703;48.154;17.126;2023-02-19T19:47:41;12.10;47.50
50738;DHT22;36703;48.154;17.126;2023-02-19T19:51:43;12.10;47.20
50738;DHT22;36703;48.154;17.126;2023-02-19T19:55:44;12.00;46.90
50738;DHT22;36703;48.154;17.126;2023-02-19T19:59:50;12.00;46.80
50738;DHT22;36703;48.154;17.126;2023-02-19T20:03:51;12.00;46.50
50738;DHT22;36703;48.154;17.126;2023-02-19T20:07:53;12.00;47.10
50738;DHT22;36703;48.154;17.126;2023-02-19T20:11:55;11.90;46.50
50738;DHT22;36703;48.154;17.126;2023-02-19T20:15:57;11.90;46.50
50738;DHT22;36703;48.154;17.126;2023-02-19T20:19:58;11.80;46.50
50738;DHT22;36703;48.154;17.126;2023-02-19T20:24:00;11.90;46.50
50738;DHT22;36703;48.154;17.126;2023-02-19T20:28:02;11.80;46.20
50738;DHT22;36703;48.154;17.126;2023-02-19T20:32:04;11.70;46.40
50738;DHT22;36703;48.154;17.126;2023-02-19T20:36:06;11.70;46.40
50738;DHT22;36703;48.154;17.126;2023-02-19T20:40:10;11.60;46.40
50738;DHT22;36703;48.154;17.126;2023-02-19T20:44:12;11.60;46.60
50738;DHT22;36703;48.154;17.126;2023-02-19T20:48:17;11.50;46.50
50738;DHT22;36703;48.154;17.126;2023-02-19T20:52:19;11.40;46.60
50738;DHT22;36703;48.154;17.126;2023-02-19T20:56:21;11.40;46.60
50738;DHT22;36703;48.154;17.126;2023-02-19T21:00:23;11.30;46.40
50738;DHT22;36703;48.154;17.126;2023-02-19T21:04:25;11.20;46.60
50738;DHT22;36703;48.154;17.126;2023-02-19T21:08:26;11.20;46.70
50738;DHT22;36703;48.154;17.126;2023-02-19T21:12:28;11.10;46.70
50738;DHT22;36703;48.154;17.126;2023-02-19T21:16:31;11.10;46.60
50738;DHT22;36703;48.154;17.126;2023-02-19T21:20:32;11.00;46.50
50738;DHT22;36703;48.154;17.126;2023-02-19T21:24:34;11.10;46.50
50738;DHT22;36703;48.154;17.126;2023-02-19T21:28:36;11.00;46.50
50738;DHT22;36703;48.154;17.126;2023-02-19T21:32:38;11.00;46.50
50738;DHT22;36703;48.154;17.126;2023-02-19T21:36:40;11.00;46.50
50738;DHT22;36703;48.154;17.126;2023-02-19T21:40:41;11.00;46.30
50738;DHT22;36703;48.154;17.126;2023-02-19T21:44:43;11.00;46.90
50738;DHT22;36703;48.154;17.126;2023-02-19T21:48:51;10.90;46.30
50738;DHT22;36703;48.154;17.126;2023-02-19T21:52:54;11.00;46.20
50738;DHT22;36703;48.154;17.126;2023-02-19T21:56:55;10.90;45.90
50738;DHT22;36703;48.154;17.126;2023-02-19T22:00:57;11.00;46.20
50738;DHT22;36703;48.154;17.126;2023-02-19T22:04:59;11.10;45.80
50738;DHT22;36703;48.154;17.126;2023-02-19T22:09:02;11.00;45.70
50738;DHT22;36703;48.154;17.126;2023-02-19T22:13:04;11.00;45.60
50738;DHT22;36703;48.154;17.126;2023-02-19T22:17:06;10.90;45.30
50738;DHT22;36703;48.154;17.126;2023-02-19T22:21:08;10.80;45.00
50738;DHT22;36703;48.154;17.126;2023-02-19T22:25:09;10.80;45.00
50738;DHT22;36703;48.154;17.126;2023-02-19T22:29:13;10.70;44.80
50738;DHT22;36703;48.154;17.126;2023-02-19T22:33:15;10.70;44.80
50738;DHT22;36703;48.154;17.126;2023-02-19T22:37:16;10.70;44.70
50738;DHT22;36703;48.154;17.126;2023-02-19T22:41:19;10.60;44.50
50738;DHT22;36703;48.154;17.126;2023-02-19T22:45:20;10.60;44.60
50738;DHT22;36703;48.154;17.126;2023-02-19T22:49:22;10.60;44.60
50738;DHT22;36703;48.154;17.126;2023-02-19T22:53:24;10.50;44.60
50738;DHT22;36703;48.154;17.126;2023-02-19T22:57:25;10.50;44.50
50738;DHT22;36703;48.154;17.126;2023-02-19T23:01:28;10.50;44.50
50738;DHT22;36703;48.154;17.126;2023-02-19T23:05:29;10.50;44.40
50738;DHT22;36703;48.154;17.126;2023-02-19T23:09:32;10.50;44.20
50738;DHT22;36703;48.154;17.126;2023-02-19T23:13:33;10.50;44.20
50738;DHT22;36703;48.154;17.126;2023-02-19T23:17:35;10.50;44.10
50738;DHT22;36703;48.154;17.126;2023-02-19T23:21:41;10.40;44.00
50738;DHT22;36703;48.154;17.126;2023-02-19T23:25:43;10.40;43.80
50738;DHT22;36703;48.154;17.126;2023-02-19T23:29:45;10.40;43.70
50738;DHT22;36703;48.154;17.126;2023-02-19T23:33:46;10.30;43.60
50738;DHT22;36703;48.154;17.126;2023-02-19T23:37:48;10.30;43.60
50738;DHT22;36703;48.154;17.126;2023-02-19T23:41:55;10.30;43.50
50738;DHT22;36703;48.154;17.126;2023-02-19T23:45:57;10.20;43.50
50738;DHT22;36703;48.154;17.126;2023-02-19T23:49:58;10.20;43.60
50738;DHT22;36703;48.154;17.126;2023-02-19T23:54:00;10.20;43.80
50738;DHT22;36703;48.154;17.126;2023-02-19T23:58:02;10.10;43.80
